Monument, Colorado
Current Conditions -  °F | °C
As of 2:58 PM on Monday 20 Oct 2014 (Local Time) from KAFF Reporting Station
Clear Clear  
Wind Chill: 67°   Ceiling: Unl
Heat Index: 67°   Visibility: 10mi
Dew Point: 33°   Wind: 18mph
Humidity: 29%   Direction: 140°SE
Pressure: 30.18"   Gusts: 22mph
Location:  39.09°N, 104.87°W
Report Text: KAFF 202058Z AUTO 14016G19KT 10SM CLR 19/01 A3018 RMK AO2 SLP175 T01920005 56016
Loading
Personal Weather Stations






























Interactive Weather Map
Tropical Storm Tracking
New forecast layout! Learn more

10-Day Weather Forecast

Advertisements
Track Severe Weather on mobile